Time;durP1;ratioP1;P1;durP2;ratioP2;P2;SDS_P1;SDS_P2;PMS_P1;PMS_P2;Temp;Humidity;BMP_temperature;BMP_pressure;BME280_temperature;BME280_humidity;BME280_pressure;Samples;Min_cycle;Max_cycle;Signal;HPM_P1;HPM_P2
2022/03/20 14:06:57;;;;;;;0.00;0.00;;;24.90;55.90;;;;;;5090180;28;20375;-60
2022/03/20 14:09:40;;;;;;;0.10;0.10;;;25.00;53.30;;;;;;5071039;28;20060;-62
2022/03/20 14:12:27;;;;;;;0.00;0.00;;;24.80;52.30;;;;;;5063005;28;20028;-61
2022/03/20 14:14:54;;;;;;;0.88;0.43;;;23.70;53.80;;;;;;5057575;28;20064;-61
2022/03/20 14:17:34;;;;;;;0.00;0.00;;;22.70;54.90;;;;;;5051021;28;20032;-60
2022/03/20 14:20:01;;;;;;;12.10;5.93;;;22.90;55.50;;;;;;5050995;28;20477;-59
2022/03/20 14:22:53;;;;;;;10.73;6.20;;;22.90;55.30;;;;;;5060618;28;20028;-62
2022/03/20 14:25:42;;;;;;;11.82;6.70;;;23.20;55.80;;;;;;5084223;28;20027;-62
2022/03/20 14:28:10;;;;;;;10.40;5.70;;;23.10;54.90;;;;;;5072767;28;20465;-59
2022/03/20 14:41:48;;;;;;;11.07;6.30;;;23.10;55.00;;;;;;5050565;28;20027;-62
2022/03/20 14:44:18;;;;;;;9.48;5.72;;;23.20;55.20;;;;;;5055347;28;20366;-62
2022/03/20 14:46:47;;;;;;;10.15;5.10;;;23.20;54.70;;;;;;5068890;28;20485;-61
2022/03/20 14:49:13;;;;;;;9.32;5.90;;;23.30;55.30;;;;;;5068332;28;20095;-61
2022/03/20 14:51:40;;;;;;;11.38;5.57;;;23.20;55.10;;;;;;5063482;28;20445;-61
2022/03/20 14:54:06;;;;;;;12.65;5.82;;;23.00;54.30;;;;;;5059467;28;20021;-63
2022/03/20 14:56:32;;;;;;;11.82;6.28;;;22.80;54.30;;;;;;5049971;28;20044;-61
2022/03/20 14:58:59;;;;;;;13.60;6.53;;;22.70;54.70;;;;;;5056486;28;20031;-60
2022/03/20 15:01:25;;;;;;;10.95;5.43;;;22.70;53.90;;;;;;5069848;28;20025;-61
2022/03/20 15:03:51;;;;;;;10.50;5.47;;;22.50;55.00;;;;;;5073535;28;20157;-58
2022/03/20 15:06:16;;;;;;;11.10;5.70;;;22.40;53.90;;;;;;5089152;28;20537;-59
2022/03/20 15:11:27;;;;;;;9.82;5.70;;;22.00;56.40;;;;;;5070135;28;20373;-56
2022/03/20 15:13:57;;;;;;;10.68;5.55;;;22.80;54.80;;;;;;5073799;28;20025;-55
2022/03/20 15:16:25;;;;;;;9.75;5.45;;;23.20;54.60;;;;;;5086332;28;20036;-55
2022/03/20 15:18:51;;;;;;;8.52;5.03;;;23.50;55.20;;;;;;5072982;28;20060;-58
2022/03/20 15:21:18;;;;;;;9.10;5.32;;;23.70;55.80;;;;;;5056566;28;20029;-55
2022/03/20 15:23:44;;;;;;;10.52;4.70;;;23.90;57.30;;;;;;5049657;28;20083;-55
2022/03/20 15:26:10;;;;;;;9.40;4.80;;;24.00;54.50;;;;;;5035418;28;20029;-55
2022/03/20 15:28:36;;;;;;;9.88;5.05;;;23.90;54.80;;;;;;5046533;28;20041;-51
2022/03/20 15:31:06;;;;;;;9.93;5.18;;;23.90;55.30;;;;;;5057692;28;20024;-52
2022/03/20 15:33:38;;;;;;;10.38;5.50;;;23.90;54.40;;;;;;5059228;28;20028;-53
2022/03/20 15:36:09;;;;;;;9.95;6.00;;;23.90;53.20;;;;;;5057505;28;20031;-53
2022/03/20 15:38:39;;;;;;;8.13;5.03;;;23.80;54.10;;;;;;5055762;28;20045;-49
2022/03/20 15:41:06;;;;;;;9.25;5.00;;;23.70;54.30;;;;;;5055231;28;20021;-50
2022/03/20 15:43:32;;;;;;;10.77;5.07;;;23.60;54.90;;;;;;5055547;28;20818;-54
2022/03/20 15:46:00;;;;;;;8.50;5.30;;;23.60;54.10;;;;;;5064187;28;20025;-49
2022/03/20 15:48:29;;;;;;;10.27;5.63;;;23.50;54.10;;;;;;5061582;28;20020;-51
2022/03/20 15:50:55;;;;;;;11.95;5.30;;;23.30;53.90;;;;;;5059696;28;20051;-60
2022/03/20 15:53:20;;;;;;;9.77;5.22;;;22.40;53.30;;;;;;5059300;28;20488;-62
2022/03/20 15:55:46;;;;;;;10.45;5.00;;;21.60;53.70;;;;;;5059041;28;20034;-60
2022/03/20 15:58:12;;;;;;;11.35;5.75;;;21.30;54.80;;;;;;5065190;28;20403;-61
2022/03/20 16:00:38;;;;;;;9.73;5.57;;;21.10;53.70;;;;;;5050206;28;20044;-61
2022/03/20 16:03:03;;;;;;;12.43;5.95;;;20.90;54.30;;;;;;5057283;28;20587;-59
2022/03/20 16:05:30;;;;;;;12.20;5.57;;;20.50;54.60;;;;;;5060412;28;20492;-57
2022/03/20 16:07:55;;;;;;;10.02;5.60;;;20.30;54.60;;;;;;5058483;28;20028;-55
2022/03/20 16:10:21;;;;;;;9.32;5.18;;;20.10;55.70;;;;;;5056213;28;20043;-60
2022/03/20 16:12:47;;;;;;;11.30;5.75;;;20.20;56.20;;;;;;5071003;28;20029;-59
2022/03/20 16:15:12;;;;;;;11.13;5.72;;;20.10;56.20;;;;;;5055129;28;20036;-61
2022/03/20 16:17:38;;;;;;;9.75;5.15;;;20.20;56.20;;;;;;5055927;28;20469;-62
2022/03/20 16:20:05;;;;;;;9.68;5.60;;;20.10;55.70;;;;;;5052568;28;20033;-62
2022/03/20 16:28:29;;;;;;;9.35;5.50;;;19.80;56.80;;;;;;5054468;28;20025;-57
2022/03/20 16:30:44;;;;;;;11.25;5.85;;;19.60;56.30;;;;;;5047760;28;20116;-58
2022/03/20 16:33:09;;;;;;;11.70;5.55;;;19.30;56.80;;;;;;5055185;28;20257;-59
2022/03/20 16:35:35;;;;;;;11.77;5.40;;;19.20;57.70;;;;;;5054633;28;20040;-61
2022/03/20 16:38:00;;;;;;;11.13;4.95;;;19.20;57.80;;;;;;5043137;28;20467;-57
2022/03/20 16:40:26;;;;;;;11.82;5.38;;;19.20;56.80;;;;;;5053008;28;20039;-60
2022/03/20 16:42:53;;;;;;;9.85;5.30;;;19.00;56.40;;;;;;5065612;28;20364;-58
2022/03/20 16:45:18;;;;;;;9.45;4.72;;;19.00;56.30;;;;;;5055773;28;20029;-57
2022/03/20 16:47:44;;;;;;;11.68;5.07;;;19.00;55.70;;;;;;5044177;28;20040;-59
2022/03/20 16:50:12;;;;;;;9.48;4.85;;;18.90;56.00;;;;;;5059915;28;20178;-57
2022/03/20 16:52:38;;;;;;;10.85;5.65;;;18.90;56.40;;;;;;5061627;28;20105;-59
2022/03/20 16:55:04;;;;;;;12.23;5.50;;;18.90;55.90;;;;;;5053999;28;20831;-59
2022/03/20 16:57:30;;;;;;;10.48;4.63;;;18.60;56.50;;;;;;5052796;28;20461;-59
2022/03/20 16:59:55;;;;;;;9.07;4.70;;;18.50;56.50;;;;;;5053350;28;20039;-60
2022/03/20 17:02:21;;;;;;;9.75;5.25;;;18.40;56.80;;;;;;5056647;28;20071;-61
2022/03/20 17:04:46;;;;;;;8.75;4.72;;;18.30;56.60;;;;;;5048107;28;20515;-61
2022/03/20 17:07:12;;;;;;;11.50;5.50;;;18.20;57.20;;;;;;5037277;28;20508;-61
2022/03/20 17:09:37;;;;;;;12.27;6.18;;;18.10;57.70;;;;;;5054432;28;20040;-60
2022/03/20 17:12:03;;;;;;;13.68;5.30;;;18.10;57.60;;;;;;5056523;28;20060;-61
2022/03/20 17:14:29;;;;;;;9.63;5.07;;;18.10;57.80;;;;;;5052411;28;20028;-61
2022/03/20 17:16:54;;;;;;;9.57;4.82;;;18.00;57.50;;;;;;5057663;28;20033;-66
